Waitakeres Weather Go to January February March April May June
June Summaries Go to July August September October November December
Details 2007 2008 2009 2010 2011 2012 2013 2014 2015 2016 2017
Highest Temperature 17.9C 16.5C 16.3C 17.7C 20.1C 18.5C 17.4C 19.2C 19.9C 17.5C 16.7C
Lowest Temperature 4.2C 5.6C 2.8C 4.6C 3.2C 1.4C 3.8C 5.0C 1.3C 4.4C 4.1C
Average Temperature 12.0C 11.8C 10.1C 11.2C 11.9C 10.2C 11.0C 12.2C 11.2C 11.8C 11.0C
Highest Pressure 1026.0 hPa 1034.0 hPa 1033.0 hPa 1032.6 hPa 1030.2 hPa 1028.0 hPa 1030.4 hPa 1032.3 hPa 1029.7 hPa 1036.4 hPa 1031.1 hPa
Lowest Pressure 987.0 hPa 994.0 hPa 991.0 hPa 990.9 hPa 991.3 hPa 992.9 hPa 982.7 hPa 1002.9 hPa 993.8 hPa 998.5 hPa 995.4 hPa
Total Rain - 153.3 mm 140.5 mm 245.0 mm 161.6 mm 113.8 mm 181.0 mm 182.8 mm 116.2 mm 97.6 mm 112.2 mm
Most Rain in 24 hrs - 21.1 mm 27.4 mm 45.2 mm 28.8 mm 11.8 mm 31.2 mm 44.6 mm 26.0 mm 20.6 mm 20.2 mm
Heaviest Rain       195.2 mm/hr 76.8 mm/hr 137.2 mm/hr 245.2 mm/hr 111.8 mm/hr 134.0 mm/hr 114.0 mm/hr 80.6 mm/hr
Number of Rain Days - 21 days 19 days 25 days 28 days 24 days 22 days 20 days 25 days 25 days 25 days
Highest Gust       35.4 km/hr 33.8 km/hr 27.4 km/hr 32.2 km/hr 40.2 km/hr 32.2 km/hr 38.6 km/hr 37.0 km/hr
Highest Average Wind       12.4 km/hr 11.9 km/hr 6.5 km/hr 8.0 km/hr 12.9 km/hr 9.7 km/hr 11.3 km/hr 11.3 km/hr
Highest Windrun       128.9 km 186.9 km 81.6 km 89.8 km 122.1 km 92.5 km 149.3 km 153.6 km
Back to Current Weather Go To Rainfall Data
Tabled Data - scroll down 2017 Temperature Pressure Rain Wind
for earlier years Maximum Minimum Average Maximum Minimum Day Total Maximum Rain Rate High Gust Highest Av Run
C C C hPa hPa mm mm/hr time km/h km/h km
01/06/2017 16.6C 8.4C 12.0C 1017.5 hPa 1014.6 hPa 0.2 mm 0.0 mm/hr 00:00 hrs 12.9 km/hr 3.2 km/hr 10.6 km
02/06/2017 14.4C 11.1C 12.6C 1015.0 hPa 1007.7 hPa 18.0 mm 37.8 mm/hr 03:44 hrs 19.3 km/hr 6.4 km/hr 57.7 km
03/06/2017 14.1C 8.1C 10.6C 1009.5 hPa 1006.6 hPa 11.4 mm 8.2 mm/hr 02:21 hrs 17.7 km/hr 3.2 km/hr 26.2 km
04/06/2017 15.1C 5.6C 9.8C 1013.4 hPa 1009.2 hPa 2.4 mm 20.8 mm/hr 18:25 hrs 8.0 km/hr 1.6 km/hr 0.0 km
05/06/2017 15.6C 7.5C 10.4C 1014.8 hPa 1012.6 hPa 0.6 mm 0.0 mm/hr 00:00 hrs 9.7 km/hr 4.8 km/hr 4.9 km
06/06/2017 14.4C 6.2C 9.8C 1016.2 hPa 1013.6 hPa 12.6 mm 48.4 mm/hr 14:07 hrs 11.3 km/hr 3.2 km/hr 6.2 km
07/06/2017 14.5C 6.6C 9.8C 1020.8 hPa 1015.5 hPa 6.6 mm 61.2 mm/hr 11:04 hrs 8.0 km/hr 1.6 km/hr 0.1 km
08/06/2017 13.9C 6.1C 8.5C 1023.0 hPa 1020.1 hPa 0.0 mm 0.0 mm/hr 00:00 hrs 11.3 km/hr 1.6 km/hr 3.3 km
09/06/2017 14.7C 4.1C 9.0C 1023.7 hPa 1020.7 hPa 0.4 mm 0.0 mm/hr 00:00 hrs 6.4 km/hr 1.6 km/hr 0.7 km
10/06/2017 15.9C 8.3C 11.9C 1021.5 hPa 1017.5 hPa 0.6 mm 0.0 mm/hr 00:00 hrs 19.3 km/hr 3.2 km/hr 17.5 km
11/06/2017 15.6C 6.5C 10.3C 1025.2 hPa 1019.7 hPa 0.4 mm 0.0 mm/hr 00:00 hrs 12.9 km/hr 1.6 km/hr 0.9 km
12/06/2017 15.3C 8.3C 11.3C 1025.7 hPa 1023.2 hPa 2.0 mm 19.6 mm/hr 21:19 hrs 11.3 km/hr 1.6 km/hr 0.3 km
13/06/2017 15.2C 9.3C 12.7C 1023.5 hPa 1015.7 hPa 5.8 mm 47.8 mm/hr 21:50 hrs 14.5 km/hr 3.2 km/hr 23.9 km
14/06/2017 14.1C 10.3C 12.2C 1021.5 hPa 1014.1 hPa 2.2 mm 16.4 mm/hr 02:34 hrs 22.5 km/hr 6.4 km/hr 63.5 km
15/06/2017 14.8C 7.1C 11.3C 1024.4 hPa 1021.2 hPa 0.2 mm 0.0 mm/hr 00:00 hrs 20.9 km/hr 1.6 km/hr 3.8 km
16/06/2017 16.6C 9.7C 12.2C 1026.3 hPa 1022.6 hPa 7.4 mm 56.4 mm/hr 18:45 hrs 12.9 km/hr 1.6 km/hr 3.2 km
17/06/2017 16.6C 6.9C 10.7C 1030.5 hPa 1026.2 hPa 0.2 mm 0.0 mm/hr 00:00 hrs 4.8 km/hr 1.6 km/hr 0.1 km
18/06/2017 15.4C 6.2C 10.4C 1031.1 hPa 1028.4 hPa 1.2 mm 1.8 mm/hr 16:43 hrs 11.3 km/hr 4.8 km/hr 10.4 km
19/06/2017 15.6C 10.6C 12.4C 1028.8 hPa 1025.8 hPa 0.0 mm 0.0 mm/hr 00:00 hrs 12.9 km/hr 4.8 km/hr 18.6 km
20/06/2017 16.4C 9.2C 12.3C 1028.4 hPa 1025.6 hPa 0.2 mm 0.0 mm/hr 00:00 hrs 27.4 km/hr 8.0 km/hr 67.7 km
21/06/2017 14.9C 11.8C 13.3C 1028.0 hPa 1017.1 hPa 0.0 mm 0.0 mm/hr 00:00 hrs 37.0 km/hr 11.3 km/hr 153.6 km
22/06/2017 15.5C 12.8C 14.2C 1017.2 hPa 1004.3 hPa 20.2 mm 14.6 mm/hr 10:20 hrs 35.4 km/hr 9.7 km/hr 130.2 km
23/06/2017 16.7C 11.8C 14.2C 1004.3 hPa 995.8 hPa 0.8 mm 3.6 mm/hr 13:54 hrs 11.3 km/hr 3.2 km/hr 13.0 km
24/06/2017 13.3C 9.6C 11.8C 1005.0 hPa 995.4 hPa 13.2 mm 43.8 mm/hr 11:22 hrs 20.9 km/hr 4.8 km/hr 43.9 km
25/06/2017 15.9C 7.2C 11.1C 1014.4 hPa 1004.8 hPa 3.4 mm 80.6 mm/hr 08:07 hrs 9.7 km/hr 1.6 km/hr 3.8 km
26/06/2017 13.3C 5.7C 9.0C 1017.3 hPa 1014.1 hPa 1.0 mm 2.8 mm/hr 07:39 hrs 9.7 km/hr 1.6 km/hr 3.4 km
27/06/2017 13.7C 4.6C 7.7C 1020.4 hPa 1016.7 hPa 0.0 mm 0.0 mm/hr 00:00 hrs 9.7 km/hr 1.6 km/hr 1.1 km
28/06/2017 15.4C 4.8C 9.4C 1024.2 hPa 1020.1 hPa 0.8 mm 4.6 mm/hr 23:36 hrs 8.0 km/hr 1.6 km/hr 4.6 km
29/06/2017 15.9C 6.1C 9.5C 1025.9 hPa 1023.1 hPa 0.4 mm 0.0 mm/hr 00:00 hrs 6.4 km/hr 1.6 km/hr 1.9 km
30/06/2017 15.1C 5.4C 10.1C 1026.4 hPa 1021.6 hPa 0.0 mm 0.0 mm/hr 00:00 hrs 12.9 km/hr 4.8 km/hr 12.1 km
Back to top                        
Tabled Data - scroll down 2016 Temperature Pressure Rain Wind
for earlier years Maximum Minimum Average Maximum Minimum Day Total Maximum Rain Rate High Gust Highest Av Run
C C C hPa hPa mm mm/hr time km/h km/h km
01/06/2016 12.9C 5.9C 9.1C 1018.9 hPa 1009.7 hPa 0.6 mm 1.2 mm/hr 00:00 hrs 8.0 km/hr 1.6 km/hr 1.3 km
02/06/2016 13.7C 4.6C 8.3C 1025.8 hPa 1018.6 hPa 0.0 mm 0.0 mm/hr 00:00 hrs 12.9 km/hr 3.2 km/hr 6.1 km
03/06/2016 15.3C 4.4C 8.4C 1030.6 hPa 1025.6 hPa 0.0 mm 0.0 mm/hr 00:00 hrs 9.7 km/hr 1.6 km/hr 1.3 km
04/06/2016 16.4C 5.1C 8.8C 1034.0 hPa 1030.2 hPa 0.2 mm 0.0 mm/hr 00:00 hrs 6.4 km/hr 0.0 km/hr 0.0 km
05/06/2016 16.0C 5.0C 8.8C 1035.5 hPa 1032.4 hPa 0.2 mm 0.0 mm/hr 00:00 hrs 9.7 km/hr 1.6 km/hr 2.9 km
06/06/2016 15.1C 5.6C 10.4C 1036.4 hPa 1032.3 hPa 0.0 mm 0.0 mm/hr 00:00 hrs 16.1 km/hr 3.2 km/hr 21.2 km
07/06/2016 16.8C 10.4C 13.5C 1033.3 hPa 1027.2 hPa 0.0 mm 0.0 mm/hr 00:00 hrs 29.0 km/hr 8.0 km/hr 109.3 km
08/06/2016 16.6C 12.6C 14.4C 1027.3 hPa 1017.4 hPa 0.2 mm 0.0 mm/hr 00:00 hrs 32.2 km/hr 11.3 km/hr 140.0 km
09/06/2016 17.2C 13.6C 15.7C 1017.6 hPa 1011.9 hPa 5.6 mm 25.4 mm/hr 03:43 hrs 33.8 km/hr 11.3 km/hr 149.3 km
10/06/2016 17.5C 13.9C 15.9C 1012.9 hPa 1010.4 hPa 3.2 mm 9.8 mm/hr 12:05 hrs 17.7 km/hr 3.2 km/hr 13.1 km
11/06/2016 17.0C 9.6C 13.6C 1017.6 hPa 1010.4 hPa 0.8 mm 5.2 mm/hr 12:00 hrs 6.4 km/hr 1.6 km/hr 0.0 km
12/06/2016 16.7C 9.2C 12.6C 1018.4 hPa 1011.3 hPa 9.2 mm 90.0 mm/hr 17:07 hrs 20.9 km/hr 4.8 km/hr 21.2 km
13/06/2016 13.7C 6.1C 10.1C 1033.5 hPa 1018.3 hPa 0.6 mm 0.0 mm/hr 00:00 hrs 25.7 km/hr 4.8 km/hr 22.3 km
14/06/2016 14.8C 6.2C 10.8C 1033.8 hPa 1028.0 hPa 3.4 mm 4.6 mm/hr 04:09 hrs 8.0 km/hr 1.6 km/hr 0.0 km
15/06/2016 14.6C 9.3C 11.8C 1028.2 hPa 1021.5 hPa 4.0 mm 18.8 mm/hr 15:00 hrs 6.4 km/hr 1.6 km/hr 0.1 km
16/06/2016 15.8C 6.9C 10.4C 1024.7 hPa 1021.6 hPa 0.8 mm 5.0 mm/hr 08:47 hrs 8.0 km/hr 1.6 km/hr 0.2 km
17/06/2016 15.4C 6.4C 9.9C 1026.7 hPa 1023.3 hPa 0.8 mm 0.0 mm/hr 00:00 hrs 8.0 km/hr 1.6 km/hr 0.2 km
18/06/2016 13.0C 7.1C 10.3C 1026.6 hPa 1023.8 hPa 0.6 mm 0.0 mm/hr 00:00 hrs 8.0 km/hr 0.0 km/hr 0.0 km
19/06/2016 16.5C 9.2C 12.3C 1026.4 hPa 1023.6 hPa 0.0 mm 0.0 mm/hr 00:00 hrs 14.5 km/hr 1.6 km/hr 4.1 km
20/06/2016 16.8C 8.3C 12.0C 1029.1 hPa 1025.4 hPa 0.2 mm 0.0 mm/hr 00:00 hrs 12.9 km/hr 3.2 km/hr 7.1 km
21/06/2016 17.1C 11.1C 13.6C 1025.5 hPa 1017.8 hPa 0.2 mm 0.0 mm/hr 00:00 hrs 20.9 km/hr 8.0 km/hr 20.1 km
22/06/2016 16.4C 14.2C 15.2C 1017.8 hPa 1006.2 hPa 16.0 mm 43.6 mm/hr 20:54 hrs 17.7 km/hr 3.2 km/hr 13.6 km
23/06/2016 16.4C 11.8C 15.0C 1008.6 hPa 1001.8 hPa 4.0 mm 114.0 mm/hr 11:51 hrs 19.3 km/hr 4.8 km/hr 43.2 km
24/06/2016 16.8C 8.7C 12.5C 1015.1 hPa 1008.4 hPa 0.6 mm 0.0 mm/hr 00:00 hrs 16.1 km/hr 1.6 km/hr 10.8 km
25/06/2016 14.2C 8.8C 11.7C 1014.1 hPa 998.9 hPa 9.6 mm 10.0 mm/hr 22:47 hrs 17.7 km/hr 6.4 km/hr 18.0 km
26/06/2016 14.7C 9.3C 11.8C 1002.1 hPa 998.5 hPa 7.2 mm 36.4 mm/hr 18:39 hrs 38.6 km/hr 6.4 km/hr 35.9 km
27/06/2016 14.3C 9.8C 12.8C 1010.2 hPa 999.6 hPa 5.6 mm 64.8 mm/hr 10:38 hrs 29.0 km/hr 8.0 km/hr 50.6 km
28/06/2016 14.8C 10.2C 12.2C 1017.1 hPa 1010.1 hPa 1.8 mm 4.8 mm/hr 12:56 hrs 12.9 km/hr 1.6 km/hr 0.8 km
29/06/2016 14.2C 10.6C 11.6C 1016.5 hPa 1004.5 hPa 20.6 mm 15.2 mm/hr 10:28 hrs 19.3 km/hr 4.8 km/hr 17.0 km
30/06/2016 14.9C 9.5C 11.8C 1011.8 hPa 1003.2 hPa 1.6 mm 6.6 mm/hr 08:37 hrs 12.9 km/hr 3.2 km/hr 4.7 km
Back to top                        
Tabled Data - scroll down 2015 Temperature Pressure Rain Wind
for earlier years Maximum Minimum Average Maximum Minimum Day Total Maximum Rain Rate High Gust Highest Av Run
C C C hPa hPa mm mm/hr time km/h km/h km
01/06/2015 17.3C 11.9C 13.9C 1017.7 hPa 1008.6 hPa 7.6 mm 40.6 mm/hr 23:29 hrs 25.7 km/hr 6.4 km/hr 56.5 km
02/06/2015 19.9C 11.1C 14.7C 1008.7 hPa 997.3 hPa 6.6 mm 134.0 mm/hr 17:01 hrs 27.4 km/hr 6.4 km/hr 50.0 km
03/06/2015 14.7C 8.1C 11.8C 999.5 hPa 993.8 hPa 26.0 mm 93.0 mm/hr 15:53 hrs 32.2 km/hr 9.7 km/hr 65.5 km
04/06/2015 14.6C 11.1C 12.3C 1004.6 hPa 995.9 hPa 7.2 mm 84.0 mm/hr 02:32 hrs 22.5 km/hr 3.2 km/hr 37.4 km
05/06/2015 15.1C 9.0C 11.7C 1016.7 hPa 1004.4 hPa 7.2 mm 28.4 mm/hr 03:03 hrs 9.7 km/hr 1.6 km/hr 4.3 km
06/06/2015 15.2C 7.7C 10.8C 1023.2 hPa 1016.6 hPa 2.2 mm 11.0 mm/hr 20:34 hrs 6.4 km/hr 1.6 km/hr 0.2 km
07/06/2015 13.6C 7.0C 9.8C 1025.8 hPa 1022.5 hPa 2.6 mm 10.0 mm/hr 00:37 hrs 12.9 km/hr 3.2 km/hr 4.1 km
08/06/2015 16.1C 7.1C 10.2C 1028.9 hPa 1025.5 hPa 0.4 mm 0.0 mm/hr 00:00 hrs 4.8 km/hr 1.6 km/hr 0.3 km
09/06/2015 14.9C 7.6C 11.0C 1029.7 hPa 1027.6 hPa 0.2 mm 0.0 mm/hr 00:00 hrs 9.7 km/hr 3.2 km/hr 4.7 km
10/06/2015 16.3C 10.3C 13.0C 1027.7 hPa 1021.0 hPa 6.6 mm 60.6 mm/hr 23:46 hrs 24.1 km/hr 6.4 km/hr 61.1 km
11/06/2015 14.8C 9.0C 12.1C 1023.0 hPa 1020.9 hPa 6.2 mm 25.6 mm/hr 21:51 hrs 16.1 km/hr 3.2 km/hr 19.0 km
12/06/2015 15.2C 9.2C 11.8C 1022.1 hPa 1012.6 hPa 4.8 mm 24.8 mm/hr 18:20 hrs 20.9 km/hr 6.4 km/hr 43.8 km
13/06/2015 15.0C 10.9C 12.4C 1018.3 hPa 1013.4 hPa 0.2 mm 0.0 mm/hr 00:00 hrs 22.5 km/hr 6.4 km/hr 92.5 km
14/06/2015 15.4C 11.2C 12.8C 1018.1 hPa 1015.6 hPa 2.2 mm 19.0 mm/hr 17:59 hrs 27.4 km/hr 4.8 km/hr 67.5 km
15/06/2015 14.1C 8.0C 11.3C 1017.9 hPa 1015.0 hPa 8.2 mm 54.0 mm/hr 11:40 hrs 12.9 km/hr 3.2 km/hr 23.4 km
16/06/2015 12.8C 3.7C 7.6C 1027.1 hPa 1017.1 hPa 0.0 mm 0.0 mm/hr 00:00 hrs 12.9 km/hr 3.2 km/hr 9.2 km
17/06/2015 14.0C 5.6C 9.2C 1029.2 hPa 1026.9 hPa 0.6 mm 1.8 mm/hr 08:19 hrs 8.0 km/hr 3.2 km/hr 1.4 km
18/06/2015 13.4C 7.9C 10.7C 1028.1 hPa 1022.6 hPa 0.0 mm 0.0 mm/hr 00:00 hrs 12.9 km/hr 4.8 km/hr 12.4 km
19/06/2015 17.7C 7.7C 13.9C 1023.0 hPa 1014.7 hPa 0.2 mm 0.0 mm/hr 00:00 hrs 24.1 km/hr 8.0 km/hr 56.7 km
20/06/2015 16.7C 13.3C 14.9C 1015.0 hPa 1004.3 hPa 12.2 mm 35.2 mm/hr 18:29 hrs 25.7 km/hr 9.7 km/hr 56.2 km
21/06/2015 13.9C 8.7C 11.1C 1015.0 hPa 1006.2 hPa 1.6 mm 1.0 mm/hr 01:47 hrs 11.3 km/hr 3.2 km/hr 12.0 km
22/06/2015 13.4C 4.9C 9.4C 1025.8 hPa 1013.9 hPa 1.8 mm 10.0 mm/hr 04:33 hrs 14.5 km/hr 1.6 km/hr 8.4 km
23/06/2015 10.3C 1.3C 4.8C 1029.2 hPa 1025.8 hPa 0.0 mm 0.0 mm/hr 00:00 hrs 11.3 km/hr 3.2 km/hr 9.3 km
24/06/2015 11.6C 1.3C 6.4C 1027.4 hPa 1020.5 hPa 0.0 mm 0.0 mm/hr 00:00 hrs 12.9 km/hr 1.6 km/hr 8.9 km
25/06/2015 12.8C 4.8C 9.3C 1020.8 hPa 1018.5 hPa 0.0 mm 0.0 mm/hr 00:00 hrs 16.1 km/hr 3.2 km/hr 18.1 km
26/06/2015 15.3C 8.3C 11.8C 1021.1 hPa 1017.4 hPa 0.2 mm 0.0 mm/hr 00:00 hrs 16.1 km/hr 3.2 km/hr 27.8 km
27/06/2015 14.1C 7.7C 11.4C 1020.2 hPa 1016.3 hPa 5.6 mm 90.8 mm/hr 00:56 hrs 24.1 km/hr 4.8 km/hr 46.2 km
28/06/2015 16.4C 9.2C 12.2C 1020.9 hPa 1018.4 hPa 0.4 mm 0.0 mm/hr 00:00 hrs 14.5 km/hr 4.8 km/hr 25.4 km
29/06/2015 15.0C 9.9C 12.0C 1019.7 hPa 1017.6 hPa 3.4 mm 23.6 mm/hr 21:22 hrs 29.0 km/hr 4.8 km/hr 55.9 km
30/06/2015 15.5C 10.8C 12.2C 1022.7 hPa 1019.1 hPa 2.0 mm 7.8 mm/hr 11:07 hrs 16.1 km/hr 3.2 km/hr 24.5 km
Back to top                        
Tabled Data - scroll down 2014 Temperature Pressure Rain Wind
for earlier years Maximum Minimum Average Maximum Minimum Day Total Maximum Rain Rate High Gust Highest Av Run
C C C hPa hPa mm mm/hr time km/h km/h km
01/06/2014 16.8C 5.0C 10.0C 1023.3 hPa 1020.8 hPa 0.0 mm 0.0 mm/hr 00:00 hrs 9.7 km/hr 3.2 km/hr 3.6 km
02/06/2014 14.9C 8.8C 11.3C 1025.7 hPa 1022.2 hPa 0.4 mm 0.0 mm/hr 00:00 hrs 6.4 km/hr 1.6 km/hr 1.2 km
03/06/2014 19.2C 9.4C 12.8C 1030.4 hPa 1025.4 hPa 0.0 mm 0.0 mm/hr 00:00 hrs 9.7 km/hr 3.2 km/hr 6.1 km
04/06/2014 16.7C 8.3C 11.3C 1032.3 hPa 1030.1 hPa 0.0 mm 0.0 mm/hr 00:00 hrs 9.7 km/hr 3.2 km/hr 7.2 km
05/06/2014 17.0C 7.1C 11.4C 1030.9 hPa 1027.7 hPa 2.4 mm 10.4 mm/hr 22:15 hrs 9.7 km/hr 1.6 km/hr 5.7 km
06/06/2014 16.7C 10.4C 12.7C 1029.1 hPa 1026.4 hPa 0.2 mm 0.0 mm/hr 00:00 hrs 11.3 km/hr 3.2 km/hr 6.1 km
07/06/2014 17.2C 9.2C 12.1C 1028.0 hPa 1025.4 hPa 0.0 mm 0.0 mm/hr 00:00 hrs 11.3 km/hr 3.2 km/hr 8.4 km
08/06/2014 18.0C 10.6C 14.0C 1026.0 hPa 1024.1 hPa 2.4 mm 3.4 mm/hr 21:48 hrs 20.9 km/hr 4.8 km/hr 30.2 km
09/06/2014 15.9C 13.9C 14.8C 1024.7 hPa 1019.0 hPa 36.2 mm 72.0 mm/hr 14:08 hrs 17.7 km/hr 6.4 km/hr 66.2 km
10/06/2014 15.2C 11.3C 13.0C 1019.3 hPa 1005.9 hPa 44.6 mm 23.6 mm/hr 05:54 hrs 30.6 km/hr 9.7 km/hr 122.1 km
11/06/2014 17.4C 11.1C 13.3C 1011.4 hPa 1002.9 hPa 0.6 mm 1.2 mm/hr 08:02 hrs 40.2 km/hr 12.9 km/hr 50.7 km
12/06/2014 16.9C 8.6C 12.3C 1015.2 hPa 1010.5 hPa 4.0 mm 21.2 mm/hr 18:28 hrs 12.9 km/hr 3.2 km/hr 14.8 km
13/06/2014 15.6C 8.9C 12.0C 1024.2 hPa 1015.2 hPa 0.0 mm 0.0 mm/hr 00:00 hrs 19.3 km/hr 4.8 km/hr 32.2 km
14/06/2014 17.3C 6.9C 10.2C 1026.6 hPa 1023.8 hPa 0.0 mm 0.0 mm/hr 00:00 hrs 8.0 km/hr 1.6 km/hr 3.8 km
15/06/2014 16.3C 7.4C 10.3C 1026.9 hPa 1024.3 hPa 0.0 mm 0.0 mm/hr 00:00 hrs 9.7 km/hr 3.2 km/hr 4.2 km
16/06/2014 15.4C 8.4C 12.2C 1025.0 hPa 1010.8 hPa 23.2 mm 25.8 mm/hr 20:47 hrs 17.7 km/hr 4.8 km/hr 18.0 km
17/06/2014 16.2C 12.3C 14.5C 1011.1 hPa 1007.0 hPa 4.2 mm 64.8 mm/hr 22:57 hrs 19.3 km/hr 4.8 km/hr 46.2 km
18/06/2014 15.3C 9.4C 11.9C 1011.4 hPa 1009.2 hPa 4.6 mm 58.8 mm/hr 22:02 hrs 14.5 km/hr 3.2 km/hr 25.0 km
19/06/2014 13.9C 8.1C 10.9C 1010.5 hPa 1006.0 hPa 3.6 mm 32.6 mm/hr 08:37 hrs 17.7 km/hr 3.2 km/hr 24.9 km
20/06/2014 14.8C 8.2C 10.6C 1021.8 hPa 1010.2 hPa 2.8 mm 18.0 mm/hr 08:09 hrs 16.1 km/hr 4.8 km/hr 23.7 km
21/06/2014 15.8C 8.4C 11.8C 1023.2 hPa 1020.6 hPa 2.6 mm 22.2 mm/hr 03:27 hrs 19.3 km/hr 3.2 km/hr 8.6 km
22/06/2014 16.8C 8.6C 12.9C 1027.1 hPa 1020.2 hPa 1.8 mm 9.4 mm/hr 10:46 hrs 11.3 km/hr 1.6 km/hr 3.5 km
23/06/2014 16.2C 7.4C 11.3C 1029.1 hPa 1026.4 hPa 0.0 mm 0.0 mm/hr 00:00 hrs 6.4 km/hr 1.6 km/hr 1.6 km
24/06/2014 16.8C 10.1C 12.8C 1027.6 hPa 1022.0 hPa 0.0 mm 0.0 mm/hr 00:00 hrs 22.5 km/hr 6.4 km/hr 34.8 km
25/06/2014 15.6C 12.9C 14.2C 1022.0 hPa 1012.8 hPa 9.8 mm 14.2 mm/hr 23:06 hrs 20.9 km/hr 4.8 km/hr 53.5 km
26/06/2014 17.6C 13.1C 15.1C 1013.0 hPa 1008.8 hPa 3.6 mm 5.2 mm/hr 00:00 hrs 14.5 km/hr 4.8 km/hr 17.2 km
27/06/2014 14.7C 9.3C 11.4C 1011.5 hPa 1007.8 hPa 16.6 mm 111.8 mm/hr 16:29 hrs 22.5 km/hr 4.8 km/hr 27.5 km
28/06/2014 15.0C 8.8C 11.6C 1019.3 hPa 1011.0 hPa 4.0 mm 32.8 mm/hr 00:04 hrs 22.5 km/hr 6.4 km/hr 63.9 km
29/06/2014 15.1C 6.7C 10.1C 1021.4 hPa 1016.8 hPa 0.0 mm 0.0 mm/hr 00:00 hrs 8.0 km/hr 1.6 km/hr 1.5 km
30/06/2014 14.7C 9.3C 12.8C 1017.3 hPa 1006.0 hPa 15.2 mm 8.0 mm/hr 05:52 hrs 20.9 km/hr 6.4 km/hr 35.4 km
Back to top                        
Tabled Data - scroll down 2013 Temperature Pressure Rain Wind
for earlier years Maximum Minimum Average Maximum Minimum Day Total Maximum Rain Rate High Gust Highest Av Run
C C C hPa hPa mm mm/hr time km/h km/h km
01/06/2013 15.9C 8.0C 11.6C 1030.4 hPa 1024.1 hPa 0.0 mm 0.0 mm/hr 00:00 hrs 8.0 km/hr 1.6 km/hr 5.4 km
02/06/2013 16.3C 7.4C 10.9C 1024.2 hPa 1015.0 hPa 0.0 mm 0.0 mm/hr 00:00 hrs 6.4 km/hr 1.6 km/hr 2.1 km
03/06/2013 15.1C 6.4C 10.0C 1015.2 hPa 1006.1 hPa 0.0 mm 0.0 mm/hr 00:00 hrs 6.4 km/hr 1.6 km/hr 1.9 km
04/06/2013 15.7C 8.4C 13.0C 1006.3 hPa 992.9 hPa 23.0 mm 31.8 mm/hr 12:57 hrs 16.1 km/hr 6.4 km/hr 30.2 km
05/06/2013 14.6C 10.6C 13.2C 1010.1 hPa 996.0 hPa 1.0 mm 16.8 mm/hr 04:51 hrs 17.7 km/hr 4.8 km/hr 23.8 km
06/06/2013 14.1C 7.4C 10.3C 1024.9 hPa 1009.9 hPa 0.0 mm 0.0 mm/hr 00:00 hrs 14.5 km/hr 4.8 km/hr 18.1 km
07/06/2013 14.4C 8.1C 11.0C 1028.1 hPa 1024.7 hPa 1.6 mm 1.6 mm/hr 14:46 hrs 8.0 km/hr 1.6 km/hr 3.8 km
08/06/2013 16.5C 8.9C 11.8C 1027.1 hPa 1019.3 hPa 0.0 mm 0.0 mm/hr 00:00 hrs 16.1 km/hr 4.8 km/hr 23.6 km
09/06/2013 14.1C 7.7C 11.5C 1019.3 hPa 1015.7 hPa 25.8 mm 14.2 mm/hr 04:19 hrs 9.7 km/hr 1.6 km/hr 5.0 km
10/06/2013 14.9C 7.2C 10.2C 1018.4 hPa 1015.3 hPa 0.2 mm 0.0 mm/hr 00:00 hrs 11.3 km/hr 3.2 km/hr 6.9 km
11/06/2013 16.6C 8.1C 11.6C 1016.4 hPa 1012.1 hPa 0.4 mm 0.0 mm/hr 00:00 hrs 9.7 km/hr 3.2 km/hr 11.2 km
12/06/2013 16.0C 11.8C 13.5C 1016.1 hPa 1011.9 hPa 4.8 mm 1.4 mm/hr 04:11 hrs 16.1 km/hr 3.2 km/hr 44.9 km
13/06/2013 16.4C 10.4C 12.9C 1017.2 hPa 1014.9 hPa 1.0 mm 0.0 mm/hr 00:00 hrs 11.3 km/hr 3.2 km/hr 21.4 km
14/06/2013 15.1C 11.9C 13.5C 1020.3 hPa 1015.2 hPa 11.6 mm 20.0 mm/hr 07:06 hrs 9.7 km/hr 3.2 km/hr 10.2 km
15/06/2013 14.8C 12.1C 13.2C 1020.9 hPa 1015.6 hPa 1.4 mm 1.4 mm/hr 01:36 hrs 12.9 km/hr 4.8 km/hr 23.5 km
16/06/2013 14.8C 12.9C 14.0C 1015.7 hPa 999.8 hPa 31.2 mm 29.0 mm/hr 16:21 hrs 25.7 km/hr 8.0 km/hr 86.3 km
17/06/2013 17.2C 10.8C 14.4C 1005.2 hPa 1002.6 hPa 2.0 mm 22.2 mm/hr 22:39 hrs 22.5 km/hr 6.4 km/hr 55.1 km
18/06/2013 17.4C 12.9C 14.3C 1005.2 hPa 997.0 hPa 12.2 mm 245.2 mm/hr 15:00 hrs 17.7 km/hr 6.4 km/hr 35.5 km
19/06/2013 13.3C 10.9C 12.2C 997.0 hPa 985.4 hPa 18.6 mm 82.2 mm/hr 14:16 hrs 12.9 km/hr 4.8 km/hr 25.1 km
20/06/2013 11.3C 6.3C 8.5C 990.2 hPa 982.7 hPa 14.0 mm 51.6 mm/hr 10:08 hrs 32.2 km/hr 6.4 km/hr 72.0 km
21/06/2013 13.3C 5.4C 8.0C 1006.5 hPa 982.8 hPa 6.6 mm 18.6 mm/hr 23:57 hrs 19.3 km/hr 4.8 km/hr 39.3 km
22/06/2013 13.1C 6.5C 9.0C 1013.8 hPa 1006.1 hPa 2.6 mm 8.4 mm/hr 00:00 hrs 20.9 km/hr 4.8 km/hr 34.3 km
23/06/2013 11.7C 5.4C 7.7C 1019.4 hPa 1013.1 hPa 5.0 mm 29.4 mm/hr 03:52 hrs 12.9 km/hr 3.2 km/hr 8.2 km
24/06/2013 13.8C 5.5C 9.4C 1022.6 hPa 1019.0 hPa 4.2 mm 18.0 mm/hr 15:04 hrs 12.9 km/hr 3.2 km/hr 9.2 km
25/06/2013 13.8C 6.7C 10.0C 1023.8 hPa 1021.4 hPa 2.6 mm 8.4 mm/hr 01:42 hrs 9.7 km/hr 3.2 km/hr 9.2 km
26/06/2013 12.6C 7.4C 9.7C 1023.4 hPa 1018.4 hPa 4.2 mm 8.8 mm/hr 10:38 hrs 8.0 km/hr 1.6 km/hr 3.5 km
27/06/2013 10.2C 7.9C 8.9C 1019.1 hPa 1008.8 hPa 0.0 mm 0.0 mm/hr 00:00 hrs 27.4 km/hr 8.0 km/hr 89.8 km
28/06/2013 13.0C 4.5C 7.7C 1022.9 hPa 1012.7 hPa 0.0 mm 0.0 mm/hr 00:00 hrs 16.1 km/hr 4.8 km/hr 15.3 km
29/06/2013 14.1C 3.8C 8.0C 1025.6 hPa 1022.4 hPa 0.0 mm 0.0 mm/hr 00:00 hrs 8.0 km/hr 3.2 km/hr 5.2 km
30/06/2013 13.4C 5.7C 8.5C 1026.9 hPa 1024.1 hPa 7.0 mm 17.4 mm/hr 02:46 hrs 8.0 km/hr 1.6 km/hr 2.9 km
Back to top                        
Tabled Data - scroll down 2012 Temperature Pressure Rain Wind
for earlier years Maximum Minimum Average Maximum Minimum Day Total Maximum Rain Rate High Gust Highest Av Run
C C C hPa hPa mm mm/hr time km/h km/h km
01/06/2012 16.3C 6.7C 10.2C 1026.8 hPa 1022.5 hPa 0.0 mm 0.0 mm/hr 00:00 hrs 11.3 km/hr 3.4 km/hr 20.3 km
02/06/2012 15.1C 6.7C 10.1C 1028.0 hPa 1025.1 hPa 0.6 mm 2.2 mm/hr 23:48 hrs 6.4 km/hr 2.3 km/hr 3.9 km
03/06/2012 16.2C 8.9C 11.5C 1026.3 hPa 1022.7 hPa 1.2 mm 3.0 mm/hr 00:07 hrs 12.9 km/hr 2.3 km/hr 7.5 km
04/06/2012 16.7C 8.9C 11.7C 1025.1 hPa 1020.2 hPa 0.2 mm 0.0 mm/hr 00:00 hrs 6.4 km/hr 2.6 km/hr 6.0 km
05/06/2012 16.2C 9.0C 12.8C 1020.2 hPa 1000.1 hPa 3.6 mm 9.2 mm/hr 19:31 hrs 22.5 km/hr 6.5 km/hr 56.7 km
06/06/2012 18.5C 13.0C 15.5C 1000.3 hPa 992.9 hPa 9.4 mm 39.6 mm/hr 23:25 hrs 22.5 km/hr 6.4 km/hr 40.7 km
07/06/2012 13.8C 7.7C 11.0C 1009.9 hPa 993.8 hPa 10.2 mm 85.4 mm/hr 01:11 hrs 17.7 km/hr 5.2 km/hr 32.2 km
08/06/2012 14.3C 7.1C 10.0C 1011.7 hPa 1009.6 hPa 5.6 mm 22.0 mm/hr 16:45 hrs 8.0 km/hr 2.5 km/hr 8.9 km
09/06/2012 15.3C 9.2C 12.0C 1014.2 hPa 1010.5 hPa 3.0 mm 63.2 mm/hr 14:30 hrs 12.9 km/hr 3.7 km/hr 37.2 km
10/06/2012 14.1C 9.1C 11.4C 1017.4 hPa 1014.0 hPa 1.4 mm 0.0 mm/hr 00:00 hrs 9.7 km/hr 3.0 km/hr 19.4 km
11/06/2012 14.3C 8.8C 11.3C 1016.6 hPa 1012.9 hPa 4.2 mm 11.4 mm/hr 19:06 hrs 11.3 km/hr 3.4 km/hr 27.1 km
12/06/2012 13.6C 5.4C 9.8C 1018.7 hPa 1013.5 hPa 1.2 mm 8.6 mm/hr 02:12 hrs 8.0 km/hr 2.5 km/hr 11.1 km
13/06/2012 12.7C 3.2C 6.8C 1020.0 hPa 1015.5 hPa 0.0 mm 0.0 mm/hr 00:00 hrs 11.3 km/hr 3.9 km/hr 10.5 km
14/06/2012 15.6C 3.9C 8.0C 1015.9 hPa 1010.0 hPa 0.0 mm 0.0 mm/hr 00:00 hrs 8.0 km/hr 2.3 km/hr 6.4 km
15/06/2012 11.7C 5.6C 8.3C 1011.8 hPa 1008.1 hPa 1.4 mm 1.8 mm/hr 12:21 hrs 6.4 km/hr 1.1 km/hr 2.3 km
16/06/2012 12.0C 2.9C 6.3C 1024.1 hPa 1011.6 hPa 0.0 mm 0.0 mm/hr 00:00 hrs 12.9 km/hr 4.3 km/hr 17.2 km
17/06/2012 12.1C 2.1C 6.3C 1025.6 hPa 1021.1 hPa 0.0 mm 0.0 mm/hr 00:00 hrs 8.0 km/hr 2.6 km/hr 4.7 km
18/06/2012 13.2C 3.2C 9.1C 1021.1 hPa 1007.2 hPa 11.8 mm 137.2 mm/hr 17:22 hrs 17.7 km/hr 5.0 km/hr 30.7 km
19/06/2012 14.4C 8.4C 11.5C 1007.8 hPa 1002.8 hPa 7.0 mm 46.0 mm/hr 11:31 hrs 17.7 km/hr 4.1 km/hr 32.3 km
20/06/2012 15.6C 10.0C 12.2C 1009.4 hPa 1005.8 hPa 9.4 mm 30.8 mm/hr 08:25 hrs 17.7 km/hr 4.5 km/hr 33.7 km
21/06/2012 15.3C 7.8C 10.6C 1014.0 hPa 1006.3 hPa 5.0 mm 43.4 mm/hr 15:12 hrs 12.9 km/hr 4.6 km/hr 21.1 km
22/06/2012 14.9C 7.2C 10.2C 1023.1 hPa 1013.8 hPa 0.8 mm 1.2 mm/hr 12:59 hrs 8.0 km/hr 2.8 km/hr 8.4 km
23/06/2012 15.1C 8.3C 11.7C 1023.2 hPa 1015.5 hPa 0.6 mm 1.8 mm/hr 18:40 hrs 22.5 km/hr 5.4 km/hr 38.3 km
24/06/2012 14.6C 7.2C 11.5C 1017.0 hPa 1011.3 hPa 10.6 mm 20.2 mm/hr 04:13 hrs 16.1 km/hr 6.2 km/hr 44.0 km
25/06/2012 14.1C 7.2C 10.6C 1017.1 hPa 1013.6 hPa 5.4 mm 117.6 mm/hr 08:27 hrs 24.1 km/hr 4.6 km/hr 48.3 km
26/06/2012 13.7C 8.0C 10.5C 1015.8 hPa 1010.8 hPa 4.6 mm 61.6 mm/hr 02:37 hrs 24.1 km/hr 4.9 km/hr 55.8 km
27/06/2012 11.9C 7.2C 9.4C 1019.1 hPa 1015.2 hPa 11.0 mm 70.2 mm/hr 13:06 hrs 22.5 km/hr 5.9 km/hr 73.0 km
28/06/2012 14.2C 8.6C 11.1C 1018.4 hPa 1014.9 hPa 3.8 mm 27.0 mm/hr 02:04 hrs 27.4 km/hr 5.5 km/hr 81.6 km
29/06/2012 14.0C 5.4C 9.7C 1022.4 hPa 1016.0 hPa 1.8 mm 6.2 mm/hr 05:44 hrs 14.5 km/hr 4.1 km/hr 35.1 km
30/06/2012 10.4C 1.4C 5.3C 1025.2 hPa 1022.1 hPa 0.0 mm 0.0 mm/hr 00:00 hrs 9.7 km/hr 2.5 km/hr 7.9 km
Back to top                        
2011 Temperature Pressure Rain Wind
Maximum Minimum Average Maximum Minimum Day Total Maximum Rain Rate High Gust Highest Av Run
C C C hPa hPa mm mm/hr time km/h km/h km
01/06/2011 16.3C 8.4C 11.4C 1028.6 hPa 1022.7 hPa 0.2 mm 0.0 mm/hr 00:00 hrs 8.0 km/hr 3.0 km/hr 8.2 km
02/06/2011 15.3C 7.9C 11.3C 1030.2 hPa 1027.7 hPa 0.0 mm 0.0 mm/hr 00:00 hrs 24.1 km/hr 7.9 km/hr 66.5 km
03/06/2011 14.9C 11.7C 13.3C 1029.2 hPa 1023.3 hPa 0.8 mm 0.0 mm/hr 00:00 hrs 33.8 km/hr 11.9 km/hr 186.9 km
04/06/2011 15.6C 13.2C 14.6C 1023.6 hPa 1014.1 hPa 11.0 mm 8.0 mm/hr 12:21 hrs 33.8 km/hr 9.6 km/hr 144.5 km
05/06/2011 20.1C 12.2C 15.7C 1015.1 hPa 1012.4 hPa 0.2 mm 0.0 mm/hr 00:00 hrs 11.3 km/hr 4.3 km/hr 11.1 km
06/06/2011 16.4C 12.2C 14.3C 1014.4 hPa 1012.7 hPa 2.8 mm 4.8 mm/hr 11:59 hrs 8.0 km/hr 2.6 km/hr 5.9 km
07/06/2011 16.3C 11.7C 13.9C 1014.6 hPa 1012.1 hPa 0.8 mm 24.4 mm/hr 22:49 hrs 14.5 km/hr 4.6 km/hr 28.2 km
08/06/2011 15.7C 9.8C 12.7C 1019.5 hPa 1013.9 hPa 2.6 mm 22.2 mm/hr 11:03 hrs 14.5 km/hr 2.8 km/hr 11.4 km
09/06/2011 13.5C 8.9C 11.1C 1021.2 hPa 1018.7 hPa 0.2 mm 0.0 mm/hr 00:00 hrs 4.8 km/hr 1.7 km/hr 6.1 km
10/06/2011 15.3C 11.8C 13.1C 1019.2 hPa 1009.3 hPa 28.8 mm 22.0 mm/hr 14:48 hrs 17.7 km/hr 5.5 km/hr 46.4 km
11/06/2011 15.1C 12.3C 13.9C 1012.0 hPa 1010.0 hPa 4.6 mm 55.6 mm/hr 22:58 hrs 12.9 km/hr 4.0 km/hr 36.3 km
12/06/2011 16.6C 9.8C 13.5C 1016.8 hPa 1009.9 hPa 4.0 mm 52.2 mm/hr 00:33 hrs 14.5 km/hr 2.9 km/hr 20.7 km
13/06/2011 15.2C 8.9C 11.6C 1018.4 hPa 1015.5 hPa 0.6 mm 0.0 mm/hr 00:00 hrs 8.0 km/hr 3.1 km/hr 11.0 km
14/06/2011 14.6C 9.7C 11.5C 1019.2 hPa 1017.0 hPa 0.2 mm 0.0 mm/hr 00:00 hrs 8.0 km/hr 1.8 km/hr 4.6 km
15/06/2011 14.7C 9.3C 12.1C 1021.4 hPa 1017.8 hPa 0.2 mm 0.0 mm/hr 00:00 hrs 16.1 km/hr 5.1 km/hr 38.2 km
16/06/2011 16.0C 8.7C 11.6C 1023.7 hPa 1020.9 hPa 0.4 mm 0.0 mm/hr 00:00 hrs 8.0 km/hr 2.5 km/hr 8.9 km
17/06/2011 13.6C 8.2C 11.8C 1021.9 hPa 1003.7 hPa 4.0 mm 8.0 mm/hr 23:21 hrs 30.6 km/hr 10.1 km/hr 129.0 km
18/06/2011 17.6C 11.1C 14.8C 1004.0 hPa 993.5 hPa 11.8 mm 35.8 mm/hr 13:35 hrs 22.5 km/hr 8.0 km/hr 72.1 km
19/06/2011 14.8C 9.4C 12.4C 998.9 hPa 991.3 hPa 15.6 mm 27.6 mm/hr 08:42 hrs 20.9 km/hr 8.3 km/hr 39.9 km
20/06/2011 14.2C 8.6C 12.1C 1001.4 hPa 998.8 hPa 20.2 mm 69.0 mm/hr 00:15 hrs 20.9 km/hr 5.5 km/hr 40.0 km
21/06/2011 16.6C 9.5C 12.4C 1014.0 hPa 1001.3 hPa 0.4 mm 0.0 mm/hr 00:00 hrs 11.3 km/hr 2.7 km/hr 13.0 km
22/06/2011 13.1C 8.2C 10.8C 1016.3 hPa 1011.9 hPa 0.6 mm 1.8 mm/hr 00:03 hrs 8.0 km/hr 2.8 km/hr 2.9 km
23/06/2011 14.1C 8.3C 11.1C 1011.9 hPa 1003.9 hPa 6.0 mm 30.8 mm/hr 13:45 hrs 12.9 km/hr 4.3 km/hr 19.6 km
24/06/2011 13.1C 8.8C 10.4C 1009.1 hPa 1001.7 hPa 5.6 mm 43.0 mm/hr 20:45 hrs 12.9 km/hr 4.7 km/hr 30.6 km
25/06/2011 14.6C 8.1C 10.7C 1010.7 hPa 1002.7 hPa 15.4 mm 15.8 mm/hr 16:43 hrs 20.9 km/hr 6.1 km/hr 62.7 km
26/06/2011 13.1C 5.1C 8.4C 1015.7 hPa 1007.7 hPa 6.8 mm 46.4 mm/hr 02:15 hrs 11.3 km/hr 4.0 km/hr 15.5 km
27/06/2011 15.1C 4.9C 9.7C 1016.8 hPa 1012.9 hPa 3.2 mm 24.4 mm/hr 15:56 hrs 8.0 km/hr 2.4 km/hr 9.7 km
28/06/2011 14.3C 7.5C 10.3C 1013.4 hPa 1005.8 hPa 11.4 mm 76.8 mm/hr 14:02 hrs 12.9 km/hr 2.6 km/hr 7.5 km
29/06/2011 10.9C 5.9C 8.3C 1024.7 hPa 1005.4 hPa 3.2 mm 6.6 mm/hr 01:38 hrs 12.9 km/hr 2.7 km/hr 13.2 km
30/06/2011 13.5C 3.2C 7.3C 1027.8 hPa 1024.6 hPa 0.0 mm 0.0 mm/hr 00:00 hrs 11.3 km/hr 2.4 km/hr 6.7 km
Back to top                        
2010 Temperature Pressure Rain Wind
Maximum Minimum Average Maximum Minimum Day Total Maximum Rain Rate High Gust Highest Av Run
C C C hPa hPa mm mm/hr time km/h km/h km
01/06/2010 14.6C 11.5C 13.4C 1019.7 hPa 1009.7 hPa 36.0 mm 84.8 mm/hr 09:10 hrs 14.5 km/hr 6.5 km/hr 48.4 km
02/06/2010 17.7C 12.0C 14.3C 1016.9 hPa 1011.3 hPa 0.4 mm 1.2 mm/hr 07:34 hrs 9.7 km/hr 2.0 km/hr 8.3 km
03/06/2010 17.6C 9.3C 12.1C 1022.8 hPa 1016.7 hPa 0.2 mm 0.0 mm/hr 00:00 hrs 6.4 km/hr 0.9 km/hr 1.7 km
04/06/2010 16.5C 6.9C 10.0C 1027.1 hPa 1022.7 hPa 0.0 mm 0.0 mm/hr 00:00 hrs 9.7 km/hr 2.4 km/hr 8.4 km
05/06/2010 15.7C 8.1C 12.5C 1026.8 hPa 1013.2 hPa 4.8 mm 7.6 mm/hr 21:59 hrs 35.4 km/hr 8.7 km/hr 106.6 km
06/06/2010 16.8C 13.4C 15.5C 1013.4 hPa 993.8 hPa 10.2 mm 41.2 mm/hr 08:40 hrs 30.6 km/hr 8.6 km/hr 86.1 km
07/06/2010 16.9C 9.8C 13.8C 997.1 hPa 990.9 hPa 25.4 mm 123.8 mm/hr 03:52 hrs 35.4 km/hr 12.4 km/hr 69.3 km
08/06/2010 13.8C 6.6C 10.0C 1009.6 hPa 992.6 hPa 6.8 mm 52.4 mm/hr 04:26 hrs 9.7 km/hr 3.2 km/hr 13.3 km
09/06/2010 14.4C 4.6C 8.5C 1016.3 hPa 1009.5 hPa 0.2 mm 0.0 mm/hr 00:00 hrs 9.7 km/hr 3.0 km/hr 9.2 km
10/06/2010 14.7C 7.7C 11.0C 1015.9 hPa 1002.8 hPa 1.6 mm 7.8 mm/hr 05:31 hrs 16.1 km/hr 6.4 km/hr 44.0 km
11/06/2010 13.9C 10.8C 12.7C 1006.2 hPa 995.2 hPa 19.0 mm 93.0 mm/hr 18:46 hrs 19.3 km/hr 6.6 km/hr 69.5 km
12/06/2010 16.6C 10.7C 12.9C 1009.2 hPa 1005.6 hPa 22.0 mm 195.2 mm/hr 15:46 hrs 25.7 km/hr 6.3 km/hr 48.6 km
13/06/2010 13.1C 7.9C 10.4C 1009.9 hPa 1002.5 hPa 12.2 mm 160.0 mm/hr 10:13 hrs 24.1 km/hr 6.3 km/hr 47.8 km
14/06/2010 14.6C 8.3C 11.3C 1012.8 hPa 1009.8 hPa 5.4 mm 96.0 mm/hr 23:45 hrs 17.7 km/hr 6.1 km/hr 71.1 km
15/06/2010 13.7C 4.9C 9.6C 1025.6 hPa 1012.5 hPa 4.2 mm 45.0 mm/hr 06:39 hrs 17.7 km/hr 6.2 km/hr 28.8 km
16/06/2010 15.2C 4.7C 8.5C 1031.4 hPa 1025.4 hPa 0.0 mm 0.0 mm/hr 00:00 hrs 6.4 km/hr 1.8 km/hr 3.6 km
17/06/2010 15.7C 6.7C 9.7C 1032.6 hPa 1029.7 hPa 0.0 mm 0.0 mm/hr 00:00 hrs 8.0 km/hr 3.0 km/hr 9.9 km
18/06/2010 16.0C 7.6C 11.4C 1031.0 hPa 1026.3 hPa 0.0 mm 0.0 mm/hr 00:00 hrs 14.5 km/hr 5.6 km/hr 48.5 km
19/06/2010 14.9C 11.7C 13.3C 1026.3 hPa 1016.9 hPa 10.2 mm 27.6 mm/hr 23:10 hrs 24.1 km/hr 8.4 km/hr 128.9 km
20/06/2010 16.4C 11.7C 14.1C 1017.0 hPa 1012.9 hPa 7.2 mm 7.8 mm/hr 00:01 hrs 19.3 km/hr 6.6 km/hr 55.0 km
21/06/2010 15.9C 7.4C 12.4C 1025.2 hPa 1015.7 hPa 2.0 mm 44.4 mm/hr 02:35 hrs 12.9 km/hr 3.9 km/hr 37.6 km
22/06/2010 15.5C 7.0C 9.9C 1027.3 hPa 1023.7 hPa 0.0 mm 0.0 mm/hr 00:00 hrs 9.7 km/hr 2.9 km/hr 7.5 km
23/06/2010 13.9C 7.1C 9.5C 1023.9 hPa 1019.8 hPa 1.4 mm 3.4 mm/hr 04:38 hrs 12.9 km/hr 5.2 km/hr 17.7 km
24/06/2010 14.2C 6.2C 8.6C 1025.5 hPa 1021.3 hPa 0.2 mm 0.0 mm/hr 00:00 hrs 11.3 km/hr 3.7 km/hr 8.7 km
25/06/2010 11.4C 7.4C 10.0C 1022.9 hPa 1014.6 hPa 45.2 mm 50.8 mm/hr 11:47 hrs 12.9 km/hr 4.5 km/hr 17.1 km
26/06/2010 14.1C 6.6C 9.1C 1014.6 hPa 1009.5 hPa 1.6 mm 26.0 mm/hr 23:07 hrs 6.4 km/hr 1.8 km/hr 2.0 km
27/06/2010 14.2C 7.6C 9.5C 1014.5 hPa 1011.4 hPa 6.4 mm 38.2 mm/hr 07:38 hrs 12.9 km/hr 4.4 km/hr 18.4 km
28/06/2010 13.7C 7.2C 10.4C 1014.9 hPa 1007.8 hPa 5.6 mm 3.6 mm/hr 19:12 hrs 11.3 km/hr 4.4 km/hr 13.3 km
29/06/2010 14.8C 9.1C 11.4C 1010.9 hPa 1007.6 hPa 6.2 mm 79.4 mm/hr 07:24 hrs 19.3 km/hr 5.7 km/hr 18.1 km
30/06/2010 14.9C 7.9C 11.0C 1014.2 hPa 1006.8 hPa 10.6 mm 79.4 mm/hr 04:38 hrs 11.3 km/hr 4.7 km/hr 29.9 km
Back to top                        
2009 Temperature Pressure Rain Wind
Maximum Minimum Average Maximum Minimum Day Total Maximum Rain Rate High Gust Highest Av Run
C C C hPa hPa mm mm/hr time km/h km/h km
01/06/2009 11.2C 2.8C 7.0C 1026.0 hPa 1022.0 hPa 0.4 mm          
02/06/2009 12.4C 5.3C 8.9C 1032.0 hPa 1029.0 hPa 0.0 mm          
03/06/2009 12.8C 4.5C 8.7C 1033.0 hPa 1031.0 hPa 0.0 mm          
04/06/2009 12.1C 3.8C 8.0C 1031.0 hPa 1026.0 hPa 0.0 mm          
05/06/2009 13.1C 4.4C 8.8C 1023.0 hPa 1019.0 hPa 1.3 mm          
06/06/2009 13.9C 7.9C 10.9C 1016.0 hPa 1016.0 hPa 2.6 mm          
07/06/2009 12.2C 7.4C 9.8C 1021.0 hPa 1019.0 hPa 0.4 mm          
08/06/2009 11.3C 7.4C 9.4C 1019.0 hPa 1018.0 hPa 0.0 mm          
09/06/2009 11.9C 9.8C 10.9C 1017.0 hPa 1016.0 hPa 22.0 mm          
10/06/2009 14.8C 12.2C 13.5C 1016.0 hPa 1015.0 hPa 11.2 mm          
11/06/2009 16.3C 12.3C 14.3C 1019.0 hPa 1019.0 hPa 3.6 mm          
12/06/2009 13.6C 13.0C 13.3C 1017.0 hPa 1009.0 hPa 12.1 mm          
13/06/2009 15.0C 11.4C 13.2C 1003.0 hPa 1000.0 hPa 2.7 mm          
14/06/2009 12.9C 10.0C 11.5C 1005.0 hPa 1004.0 hPa 14.8 mm          
15/06/2009 14.3C 10.6C 12.5C 1008.0 hPa 1007.0 hPa 7.6 mm          
16/06/2009 13.1C 8.3C 10.7C 1011.0 hPa 1007.0 hPa 4.0 mm          
17/06/2009 10.4C 2.8C 6.6C 1018.0 hPa 1018.0 hPa 0.9 mm          
18/06/2009 10.4C 5.0C 7.7C 1023.0 hPa 1019.0 hPa 4.0 mm          
19/06/2009 12.7C 4.2C 8.5C 1026.0 hPa 1025.0 hPa 0.0 mm          
20/06/2009 12.5C 5.0C 8.8C 1028.0 hPa 1026.0 hPa 0.0 mm          
21/06/2009 11.3C 3.8C 7.6C 1030.0 hPa 1028.0 hPa 0.0 mm          
22/06/2009 12.0C 4.2C 8.1C 1028.0 hPa 1026.0 hPa 0.0 mm          
23/06/2009 11.3C 4.0C 7.7C 1028.0 hPa 1028.0 hPa 0.0 mm          
24/06/2009 12.0C 5.9C 9.0C 1028.0 hPa 1026.0 hPa 0.9 mm          
25/06/2009 12.3C 7.6C 10.0C 1026.0 hPa 1023.0 hPa 0.0 mm          
26/06/2009 13.6C 8.0C 10.8C 1018.0 hPa 1016.0 hPa 9.4 mm          
27/06/2009 14.0C 11.9C 13.0C 1015.0 hPa 1010.0 hPa 0.0 mm          
28/06/2009 13.9C 11.6C 12.8C 1004.0 hPa 991.0 hPa 27.4 mm          
29/06/2009 12.8C 10.0C 11.4C 994.0 hPa 992.0 hPa 14.8 mm          
30/06/2009 12.7C 7.8C 10.3C 1006.0 hPa 1004.0 hPa 0.4 mm          
Back to top                        
2008 Temperature Pressure Rain Wind
Maximum Minimum Average Maximum Minimum Day Total Maximum Rain Rate High Gust Highest Av Run
C C C hPa hPa mm mm/hr time km/h km/h km
01/06/2008 15.0C 9.5C 12.3C 1024.0 hPa 1021.0 hPa 4.9 mm          
02/06/2008 14.9C 10.9C 12.9C 1020.0 hPa 1019.0 hPa 8.5 mm          
03/06/2008 14.4C 8.1C 11.3C 1022.0 hPa 1020.0 hPa 1.8 mm          
04/06/2008 13.9C 9.9C 11.9C 1024.0 hPa 1019.0 hPa 2.7 mm          
05/06/2008 14.0C 5.6C 9.8C 1026.0 hPa 1026.0 hPa 0.0 mm          
06/06/2008 13.9C 9.7C 11.8C 1024.0 hPa 1022.0 hPa 0.9 mm          
07/06/2008 14.3C 8.7C 11.5C 1019.0 hPa 1009.0 hPa 6.3 mm          
08/06/2008 14.0C 7.8C 10.9C 1019.0 hPa 1013.0 hPa 5.8 mm          
09/06/2008 15.5C 9.1C 12.3C 1022.0 hPa 1020.0 hPa 0.0 mm          
10/06/2008 15.9C 9.8C 12.9C 1029.0 hPa 1025.0 hPa 0.0 mm          
11/06/2008 14.0C 9.2C 11.6C 1033.0 hPa 1032.0 hPa 0.0 mm          
12/06/2008 15.3C 10.6C 13.0C 1032.0 hPa 1031.0 hPa 0.0 mm          
13/06/2008 16.0C 11.3C 13.7C 1030.0 hPa 1027.0 hPa 0.0 mm          
14/06/2008 16.5C 10.7C 13.6C 1025.0 hPa 1022.0 hPa 0.0 mm          
15/06/2008 15.8C 12.6C 14.2C 1021.0 hPa 1019.0 hPa 1.3 mm          
16/06/2008 15.0C 14.1C 14.6C 1016.0 hPa 1011.0 hPa 20.7 mm          
17/06/2008 15.7C 13.7C 14.7C 1016.0 hPa 1010.0 hPa 6.3 mm          
18/06/2008 13.4C 8.2C 10.8C 1032.0 hPa 1026.0 hPa 0.0 mm          
19/06/2008 13.3C 9.2C 11.3C 1034.0 hPa 1033.0 hPa 0.4 mm          
20/06/2008 14.2C 9.1C 11.7C 1033.0 hPa 1030.0 hPa 0.0 mm          
21/06/2008 13.6C 8.9C 11.3C 1024.0 hPa 1016.0 hPa 0.9 mm          
22/06/2008 15.6C 12.9C 14.3C 1005.0 hPa 999.0 hPa 21.1 mm          
23/06/2008 11.9C 11.0C 11.5C 998.0 hPa 994.0 hPa 16.2 mm          
24/06/2008 10.8C 7.8C 9.3C 1003.0 hPa 998.0 hPa 9.4 mm          
25/06/2008 13.4C 6.6C 10.0C 1013.0 hPa 1009.0 hPa 11.2 mm          
26/06/2008 13.3C 9.0C 11.2C 1009.0 hPa 1007.0 hPa 4.9 mm          
27/06/2008 12.0C 10.4C 11.2C 1002.0 hPa 1001.0 hPa 6.7 mm          
28/06/2008 13.6C 10.0C 11.8C 999.0 hPa 999.0 hPa 11.2 mm          
29/06/2008 11.1C 7.0C 9.1C 1006.0 hPa 1001.0 hPa 9.4 mm          
30/06/2008 12.1C 6.3C 9.2C 1016.0 hPa 1012.0 hPa 2.7 mm          
Back to top                        
2007 Temperature Pressure Rain Wind
Maximum Minimum Average Maximum Minimum Day Total Maximum Rain Rate High Gust Highest Av Run
C C C hPa hPa mm mm/hr time km/h km/h km
01/06/2007 17.3C 9.4C 13.4C 1026.0 hPa 1023.0 hPa            
02/06/2007 16.7C 11.4C 14.1C 1018.0 hPa 1015.0 hPa            
03/06/2007 16.1C 10.9C 13.5C 1020.0 hPa 1018.0 hPa            
04/06/2007 16.2C 9.9C 13.1C 1018.0 hPa 1017.0 hPa            
05/06/2007 15.1C 10.2C 12.7C 1015.0 hPa 1011.0 hPa            
06/06/2007 16.9C 12.2C 14.6C 1011.0 hPa 1009.0 hPa            
07/06/2007 17.3C 10.4C 13.9C 1009.0 hPa 1007.0 hPa            
08/06/2007 16.9C 10.2C 13.6C 1009.0 hPa 1009.0 hPa            
09/06/2007 15.3C 10.6C 13.0C 1012.0 hPa 1010.0 hPa            
10/06/2007 12.5C 9.2C 10.9C 1007.0 hPa 1004.0 hPa            
11/06/2007 17.6C 13.4C 15.5C 1004.0 hPa 1001.0 hPa            
12/06/2007 14.7C 12.2C 13.5C 1010.0 hPa 1006.0 hPa            
13/06/2007 13.6C 9.9C 11.8C 1011.0 hPa 1009.0 hPa            
14/06/2007 16.3C 9.7C 13.0C 1018.0 hPa 1012.0 hPa            
15/06/2007 14.5C 7.7C 11.1C 1019.0 hPa 1018.0 hPa            
16/06/2007 14.1C 4.2C 9.2C 1019.0 hPa 1019.0 hPa            
17/06/2007 12.0C 4.8C 8.4C 1015.0 hPa 1014.0 hPa            
18/06/2007 15.0C 4.8C 9.9C 1014.0 hPa 1012.0 hPa            
19/06/2007 15.2C 7.1C 11.2C 1013.0 hPa 1012.0 hPa            
20/06/2007 13.4C 7.2C 10.3C 1007.0 hPa 993.0 hPa            
21/06/2007 17.9C 11.1C 14.5C 994.0 hPa 987.0 hPa            
22/06/2007 15.8C 10.2C 13.0C 997.0 hPa 995.0 hPa            
23/06/2007 15.1C 8.9C 12.0C 1009.0 hPa 1001.0 hPa            
24/06/2007 15.1C 8.9C 12.0C 1015.0 hPa 1011.0 hPa            
25/06/2007 13.1C 8.9C 11.0C 1015.0 hPa 1011.0 hPa            
26/06/2007 11.8C 5.1C 8.5C 1017.0 hPa 1014.0 hPa            
27/06/2007 13.3C 5.1C 9.2C 1026.0 hPa 1024.0 hPa            
28/06/2007 12.6C 4.7C 8.7C 1026.0 hPa 1024.0 hPa            
29/06/2007 12.7C 7.5C 10.1C 1021.0 hPa 1015.0 hPa            
30/06/2007 15.3C 12.7C 14.0C 1007.0 hPa 1005.0 hPa            
Back to top